createdAt,value
2019-05-16T00:01:03.125Z,50.77
2019-05-16T00:03:34.109Z,50.72
2019-05-16T00:06:08.438Z,50.53
2019-05-16T00:08:38.998Z,50.49
2019-05-16T00:11:09.989Z,51.08
2019-05-16T00:13:40.990Z,49.76
2019-05-16T00:16:11.877Z,50.31
2019-05-16T00:18:42.934Z,50.03
2019-05-16T00:21:13.960Z,50.34
2019-05-16T00:23:45.008Z,50.10
2019-05-16T00:26:15.968Z,50.68
2019-05-16T00:28:48.503Z,50.77
2019-05-16T00:31:19.641Z,50.34
2019-05-16T00:33:50.623Z,49.70
2019-05-16T00:36:21.638Z,50.23
2019-05-16T00:38:52.620Z,50.16
2019-05-16T00:41:23.495Z,51.65
2019-05-16T00:43:54.475Z,51.24
2019-05-16T00:46:27.816Z,50.74
2019-05-16T00:48:59.020Z,50.99
2019-05-16T00:51:30.662Z,50.88
2019-05-16T00:54:01.684Z,51.01
2019-05-16T00:56:32.610Z,50.70
2019-05-16T00:59:03.592Z,50.04
2019-05-16T01:01:34.536Z,51.00
2019-05-16T01:04:08.026Z,51.70
2019-05-16T01:06:39.074Z,51.72
2019-05-16T01:09:10.052Z,52.75
2019-05-16T01:11:41.122Z,52.88
2019-05-16T01:14:12.157Z,51.75
2019-05-16T01:16:43.182Z,52.24
2019-05-16T01:19:14.227Z,52.76
2019-05-16T01:21:45.235Z,52.74
2019-05-16T01:24:18.624Z,53.63
2019-05-16T01:26:48.868Z,52.56
2019-05-16T01:29:19.903Z,52.81
2019-05-16T01:31:50.944Z,52.85
2019-05-16T01:34:22.074Z,53.31
2019-05-16T01:36:53.012Z,52.25
2019-05-16T01:39:23.953Z,53.00
2019-05-16T01:41:54.947Z,53.24
2019-05-16T01:44:25.945Z,53.19
2019-05-16T01:46:58.561Z,52.99
2019-05-16T01:49:32.597Z,52.66
2019-05-16T01:52:03.876Z,51.90
2019-05-16T01:54:34.897Z,52.30
2019-05-16T01:57:08.101Z,51.61
2019-05-16T01:59:38.994Z,52.01
2019-05-16T02:02:09.903Z,51.54
2019-05-16T02:04:40.884Z,51.00
2019-05-16T02:07:11.904Z,51.90
2019-05-16T02:09:42.914Z,51.74
2019-05-16T02:12:13.887Z,52.07
2019-05-16T02:14:44.839Z,52.40
2019-05-16T02:17:18.138Z,51.69
2019-05-16T02:19:48.673Z,52.00
2019-05-16T02:22:19.760Z,51.79
2019-05-16T02:24:50.704Z,51.55
2019-05-16T02:27:21.632Z,52.18
2019-05-16T02:29:52.536Z,51.79
2019-05-16T02:32:23.548Z,52.08
2019-05-16T02:34:54.660Z,51.71
2019-05-16T02:37:33.370Z,52.15
2019-05-16T02:40:01.399Z,52.18
2019-05-16T02:42:33.755Z,51.84
2019-05-16T02:45:04.081Z,51.83
2019-05-16T02:47:35.417Z,52.07
2019-05-16T02:50:06.726Z,52.26
2019-05-16T02:52:41.018Z,52.06
2019-05-16T02:55:11.694Z,51.36
2019-05-16T02:57:43.124Z,51.44
2019-05-16T03:00:14.085Z,51.87
2019-05-16T03:02:45.543Z,51.71
2019-05-16T03:05:16.560Z,51.44
2019-05-16T03:07:47.837Z,52.09
2019-05-16T03:10:20.305Z,51.81
2019-05-16T03:12:52.047Z,51.18
2019-05-16T03:15:23.106Z,52.14
2019-05-16T03:17:54.060Z,51.48
2019-05-16T03:20:25.037Z,51.30
2019-05-16T03:22:57.246Z,51.06
2019-05-16T03:30:35.755Z,51.88
2019-05-16T03:33:07.248Z,51.35
2019-05-16T03:35:43.913Z,51.14
2019-05-16T03:38:12.241Z,50.97
2019-05-16T03:40:43.333Z,51.13
2019-05-16T03:43:14.237Z,50.59
2019-05-16T03:45:45.274Z,50.67
2019-05-16T03:48:16.251Z,50.30
2019-05-16T03:50:50.478Z,50.77
2019-05-16T03:53:21.195Z,50.14
2019-05-16T03:55:52.358Z,50.23
2019-05-16T03:58:23.317Z,50.41
2019-05-16T04:00:55.900Z,49.88
2019-05-16T04:06:01.080Z,49.39
2019-05-16T04:08:30.717Z,49.19
2019-05-16T04:11:01.363Z,49.51
2019-05-16T04:16:04.984Z,49.16
2019-05-16T04:21:06.627Z,49.45
2019-05-16T04:26:11.636Z,48.73
2019-05-16T04:31:15.201Z,49.27
2019-05-16T04:36:16.555Z,49.56
2019-05-16T04:41:21.159Z,49.76
2019-05-16T04:48:50.804Z,50.76
2019-05-16T04:53:51.063Z,51.44
2019-05-16T04:56:25.051Z,50.73
2019-05-16T04:58:53.183Z,50.92
2019-05-16T05:01:41.051Z,50.74
2019-05-16T05:04:14.390Z,51.43
2019-05-16T05:06:42.241Z,50.08
2019-05-16T05:09:32.393Z,50.31
2019-05-16T05:12:04.516Z,50.48
2019-05-16T05:14:36.584Z,50.55
2019-05-16T05:17:10.470Z,50.28
2019-05-16T05:19:41.364Z,50.05
2019-05-16T05:22:12.564Z,50.45
2019-05-16T05:24:43.487Z,50.75
2019-05-16T05:27:14.481Z,50.57
2019-05-16T05:29:46.004Z,50.68
2019-05-16T05:32:17.044Z,50.72
2019-05-16T05:34:50.197Z,50.92
2019-05-16T05:37:20.868Z,49.93
2019-05-16T05:39:51.889Z,50.21
2019-05-16T05:42:22.871Z,50.91
2019-05-16T05:44:53.838Z,50.29
2019-05-16T05:47:24.833Z,51.34
2019-05-16T05:49:55.729Z,50.71
2019-05-16T05:52:26.753Z,51.34
2019-05-16T05:55:00.572Z,51.00
2019-05-16T05:57:30.409Z,51.08
2019-05-16T06:00:01.534Z,51.12
2019-05-16T06:02:32.503Z,50.83
2019-05-16T06:05:03.518Z,50.90
2019-05-16T06:07:34.444Z,51.52
2019-05-16T06:10:07.188Z,50.79
2019-05-16T06:12:40.556Z,51.17
2019-05-16T06:15:12.960Z,51.62
2019-05-16T06:17:44.564Z,50.59
2019-05-16T06:20:15.659Z,50.88
2019-05-16T06:22:46.743Z,50.10
2019-05-16T06:25:22.204Z,50.83
2019-05-16T06:27:51.121Z,49.93
2019-05-16T06:30:22.321Z,50.14
2019-05-16T06:32:53.271Z,49.86
2019-05-16T06:35:24.285Z,50.53
2019-05-16T06:37:55.648Z,50.53
2019-05-16T06:40:26.689Z,50.00
2019-05-16T06:43:00.223Z,50.19
2019-05-16T06:45:32.059Z,49.83
2019-05-16T06:48:03.235Z,49.05
2019-05-16T06:50:34.290Z,49.85
2019-05-16T06:53:06.230Z,48.61
2019-05-16T06:55:37.309Z,48.06
2019-05-16T06:58:12.031Z,48.35
2019-05-16T07:00:43.252Z,48.54
2019-05-16T07:03:14.457Z,47.93
2019-05-16T07:05:45.724Z,48.30
2019-05-16T07:08:17.207Z,47.96
2019-05-16T07:10:50.475Z,47.69
2019-05-16T07:13:20.950Z,47.53
2019-05-16T07:15:51.847Z,47.29
2019-05-16T07:18:22.782Z,48.20
2019-05-16T07:20:53.875Z,47.93
2019-05-16T07:23:24.947Z,47.84
2019-05-16T07:25:56.043Z,48.73
2019-05-16T07:28:27.103Z,47.57
2019-05-16T07:31:00.479Z,47.33
2019-05-16T07:33:31.418Z,48.26
2019-05-16T07:36:02.525Z,47.88
2019-05-16T07:38:33.577Z,47.96
2019-05-16T07:41:04.757Z,48.27
2019-05-16T07:43:35.825Z,48.54
2019-05-16T07:46:06.760Z,49.51
2019-05-16T07:48:40.172Z,49.28
2019-05-16T07:51:10.643Z,49.97
2019-05-16T07:53:41.655Z,49.92
2019-05-16T07:56:12.634Z,49.57
2019-05-16T07:58:43.634Z,49.39
2019-05-16T08:01:14.669Z,49.44
2019-05-16T08:03:46.654Z,49.59
2019-05-16T08:06:20.157Z,49.91
2019-05-16T08:08:51.310Z,49.61
2019-05-16T08:11:30.450Z,49.42
2019-05-16T08:14:01.101Z,49.44
2019-05-16T08:16:32.283Z,49.33
2019-05-16T08:19:03.377Z,49.62
2019-05-16T08:21:34.395Z,49.60
2019-05-16T08:24:08.070Z,50.18
2019-05-16T08:26:42.919Z,50.49
2019-05-16T08:29:13.406Z,49.89
2019-05-16T08:31:52.359Z,49.58
2019-05-16T08:34:21.953Z,49.46
2019-05-16T08:36:52.881Z,49.68
2019-05-16T08:39:23.857Z,50.22
2019-05-16T08:41:54.906Z,51.07
2019-05-16T08:44:26.188Z,48.83
2019-05-16T08:46:58.275Z,49.18
2019-05-16T08:49:30.774Z,49.26
2019-05-16T08:52:01.943Z,49.88
2019-05-16T08:54:32.947Z,49.12
2019-05-16T08:57:25.560Z,49.13
2019-05-16T08:59:36.767Z,49.10
2019-05-16T09:02:12.049Z,48.32
2019-05-16T09:04:44.141Z,48.00
2019-05-16T09:07:14.228Z,47.73
2019-05-16T09:09:51.156Z,47.14
2019-05-16T09:12:18.205Z,47.62
2019-05-16T09:14:49.476Z,46.90
2019-05-16T09:17:21.073Z,46.80
2019-05-16T09:19:52.406Z,45.55
2019-05-16T09:22:23.338Z,44.68
2019-05-16T09:24:57.413Z,44.86
2019-05-16T09:27:27.676Z,43.76
2019-05-16T09:29:58.621Z,44.07
2019-05-16T09:35:01.177Z,43.26
2019-05-16T09:37:29.314Z,43.52
2019-05-16T09:40:00.327Z,42.90
2019-05-16T09:42:31.465Z,44.06
2019-05-16T09:45:02.656Z,45.04
2019-05-16T09:47:33.600Z,43.91
2019-05-16T09:50:06.879Z,44.38
2019-05-16T09:52:38.115Z,43.99
2019-05-16T09:55:09.179Z,43.69
2019-05-16T09:57:40.260Z,45.76
2019-05-16T10:02:41.042Z,44.28
2019-05-16T10:05:13.509Z,44.66
2019-05-16T10:07:47.004Z,45.61
2019-05-16T10:10:17.651Z,44.28
2019-05-16T10:12:48.824Z,45.76
2019-05-16T10:15:19.857Z,45.63
2019-05-16T10:17:50.956Z,45.51
2019-05-16T10:20:22.273Z,46.88
2019-05-16T10:22:53.831Z,46.22
2019-05-16T10:25:27.721Z,47.44
2019-05-16T10:27:58.179Z,47.33
2019-05-16T10:30:29.112Z,47.34
2019-05-16T10:33:01.002Z,47.26
2019-05-16T10:35:32.271Z,46.37
2019-05-16T10:38:03.315Z,45.25
2019-05-16T10:40:36.663Z,46.86
2019-05-16T10:43:07.591Z,45.88
2019-05-16T10:45:38.753Z,45.69
2019-05-16T10:48:10.063Z,45.53
2019-05-16T10:50:41.164Z,45.53
2019-05-16T10:53:28.432Z,46.78
2019-05-16T10:55:47.405Z,46.79
2019-05-16T10:58:35.086Z,46.42
2019-05-16T11:01:19.515Z,46.14
2019-05-16T11:03:23.637Z,47.10
2019-05-16T11:06:03.079Z,47.68
2019-05-16T11:08:28.035Z,47.99
2019-05-16T11:10:59.075Z,47.73
2019-05-16T11:13:30.138Z,47.54
2019-05-16T11:16:01.128Z,47.92
2019-05-16T11:18:32.002Z,47.62
2019-05-16T11:21:03.113Z,48.45
2019-05-16T11:23:36.585Z,48.37
2019-05-16T11:26:06.857Z,48.14
2019-05-16T11:28:37.880Z,48.71
2019-05-16T11:31:08.877Z,48.36
2019-05-16T11:33:39.892Z,48.67
2019-05-16T11:36:12.913Z,48.34
2019-05-16T11:38:43.463Z,48.78
2019-05-16T11:41:16.570Z,49.14
2019-05-16T11:43:47.476Z,49.97
2019-05-16T11:46:18.641Z,50.10
2019-05-16T11:48:49.666Z,51.15
2019-05-16T11:51:20.852Z,51.57
2019-05-16T11:53:51.871Z,50.74
2019-05-16T11:56:22.922Z,51.33
2019-05-16T11:58:53.915Z,50.65
2019-05-16T12:01:27.295Z,49.52
2019-05-16T12:03:59.911Z,49.20
2019-05-16T12:06:31.021Z,49.92
2019-05-16T12:09:02.116Z,49.63
2019-05-16T12:11:33.062Z,49.69
2019-05-16T12:14:04.041Z,49.42
2019-05-16T12:16:35.055Z,50.19
2019-05-16T12:19:06.848Z,49.55
2019-05-16T12:21:38.389Z,50.01
2019-05-16T12:24:09.331Z,50.53
2019-05-16T12:27:11.816Z,50.14
2019-05-16T12:32:51.431Z,50.93
2019-05-16T12:36:17.575Z,51.04
2019-05-16T12:42:31.937Z,51.33
2019-05-16T13:07:09.985Z,49.25
2019-05-16T13:09:41.109Z,49.73
2019-05-16T13:12:12.136Z,49.66
2019-05-16T13:14:43.143Z,50.19
2019-05-16T13:17:16.537Z,49.49
2019-05-16T13:19:48.275Z,49.61
2019-05-16T13:22:19.737Z,50.98
2019-05-16T13:24:50.815Z,49.71
2019-05-16T13:27:23.191Z,50.17
2019-05-16T13:29:54.580Z,49.21
2019-05-16T13:32:27.073Z,49.94
2019-05-16T13:34:59.214Z,49.79
2019-05-16T13:37:29.876Z,49.96
2019-05-16T13:40:01.196Z,48.95
2019-05-16T13:42:32.645Z,49.38
2019-05-16T13:45:07.610Z,48.88
2019-05-16T13:47:38.606Z,48.71
2019-05-16T13:50:12.073Z,47.67
2019-05-16T13:52:42.448Z,47.98
2019-05-16T13:55:13.452Z,48.44
2019-05-16T13:57:44.453Z,49.03
2019-05-16T14:00:17.375Z,48.17
2019-05-16T14:02:48.350Z,48.58
2019-05-16T14:05:19.354Z,48.96
2019-05-16T14:07:57.096Z,49.98
2019-05-16T14:10:29.725Z,48.74
2019-05-16T14:12:59.818Z,49.04
2019-05-16T14:15:36.531Z,49.35
2019-05-16T14:18:07.954Z,49.73
2019-05-16T14:20:39.158Z,50.22
2019-05-16T14:23:11.205Z,50.14
2019-05-16T14:25:43.106Z,50.47
2019-05-16T14:28:16.954Z,50.83
2019-05-16T14:30:47.024Z,50.00
2019-05-16T14:33:18.040Z,49.88
2019-05-16T14:35:49.127Z,50.18
2019-05-16T14:38:20.321Z,50.36
2019-05-16T14:40:51.630Z,50.25
2019-05-16T14:43:22.684Z,50.24
2019-05-16T14:45:54.596Z,51.13
2019-05-16T14:48:27.898Z,51.18
2019-05-16T14:50:58.289Z,50.74
2019-05-16T14:53:29.324Z,49.84
2019-05-16T14:56:00.343Z,50.03
2019-05-16T14:58:31.400Z,50.38
2019-05-16T15:01:02.618Z,49.65
2019-05-16T15:03:40.324Z,49.95
2019-05-16T15:06:18.199Z,49.54
2019-05-16T15:08:56.583Z,49.97
2019-05-16T15:11:29.437Z,50.04
2019-05-16T15:14:01.993Z,49.87
2019-05-16T15:16:33.174Z,50.14
2019-05-16T15:19:04.475Z,50.27
2019-05-16T15:21:42.312Z,49.98
2019-05-16T15:24:14.107Z,50.13
2019-05-16T15:26:48.883Z,51.21
2019-05-16T15:29:23.709Z,51.74
2019-05-16T15:31:54.543Z,51.34
2019-05-16T15:37:03.202Z,50.57
2019-05-16T15:39:37.373Z,51.07
2019-05-16T15:44:39.980Z,51.62
2019-05-16T15:49:40.370Z,51.55
2019-05-16T15:52:11.470Z,51.14
2019-05-16T15:59:40.213Z,52.19
2019-05-16T16:02:14.000Z,52.69
2019-05-16T16:04:47.589Z,52.54
2019-05-16T16:07:21.108Z,52.55
2019-05-16T16:12:23.262Z,53.54
2019-05-16T16:17:31.527Z,53.82
2019-05-16T16:22:37.529Z,54.64
2019-05-16T16:25:09.186Z,55.06
2019-05-16T16:27:44.162Z,55.58
2019-05-16T16:30:18.454Z,56.06
2019-05-16T16:35:17.502Z,57.24
2019-05-16T16:40:18.826Z,57.17
2019-05-16T16:50:18.116Z,59.66
2019-05-16T16:52:50.079Z,59.11
2019-05-16T17:00:22.949Z,59.21
2019-05-16T17:05:23.315Z,60.46
2019-05-16T17:07:57.503Z,60.48
2019-05-16T17:10:47.814Z,60.56
2019-05-16T17:15:50.809Z,60.02
2019-05-16T17:20:51.595Z,60.84
2019-05-16T17:25:51.824Z,60.73
2019-05-16T17:28:24.696Z,60.18
2019-05-16T17:30:58.847Z,60.74
2019-05-16T17:33:30.692Z,60.50
2019-05-16T17:36:21.259Z,60.89
2019-05-16T17:38:52.963Z,61.27
2019-05-16T17:41:27.189Z,61.40
2019-05-16T17:44:18.612Z,62.05
2019-05-16T17:49:30.137Z,62.47
2019-05-16T17:51:49.567Z,63.88
2019-05-16T17:56:50.569Z,63.84
2019-05-16T18:01:56.929Z,66.54
2019-05-16T18:07:02.260Z,66.75
2019-05-16T18:10:04.534Z,68.32
2019-05-16T18:12:41.406Z,66.79
2019-05-16T18:15:14.036Z,67.84
2019-05-16T18:20:26.577Z,67.70
2019-05-16T18:23:06.982Z,66.52
2019-05-16T18:25:36.983Z,67.07
2019-05-16T18:28:08.198Z,68.05
2019-05-16T18:30:39.072Z,67.24
2019-05-16T18:33:10.256Z,68.77
2019-05-16T18:35:41.428Z,67.36
2019-05-16T18:38:12.860Z,69.10
2019-05-16T18:40:44.269Z,68.58
2019-05-16T18:43:16.619Z,67.23
2019-05-16T18:45:47.877Z,68.46
2019-05-16T18:48:18.889Z,67.32
2019-05-16T18:50:49.914Z,67.67
2019-05-16T18:53:20.837Z,68.83
2019-05-16T18:55:51.933Z,69.30
2019-05-16T18:58:23.051Z,68.02
2019-05-16T19:00:54.113Z,68.43
2019-05-16T19:03:27.093Z,67.78
2019-05-16T19:05:57.796Z,67.59
2019-05-16T19:08:28.827Z,66.93
2019-05-16T19:11:00.224Z,69.07
2019-05-16T19:13:31.236Z,66.98
2019-05-16T19:18:31.227Z,67.79
2019-05-16T19:23:32.497Z,67.85
2019-05-16T19:28:36.768Z,68.50
2019-05-16T19:31:07.317Z,68.38
2019-05-16T19:33:41.231Z,69.32
2019-05-16T19:36:12.320Z,68.35
2019-05-16T19:38:46.626Z,68.70
2019-05-16T19:41:19.364Z,70.52
2019-05-16T19:43:50.476Z,68.93
2019-05-16T19:46:23.461Z,69.49
2019-05-16T19:48:54.105Z,68.84
2019-05-16T19:51:26.913Z,68.87
2019-05-16T19:53:57.894Z,70.17
2019-05-16T19:56:28.932Z,68.69
2019-05-16T19:58:59.938Z,69.29
2019-05-16T20:01:31.049Z,68.32
2019-05-16T20:04:02.136Z,70.88
2019-05-16T20:06:33.196Z,71.96
2019-05-16T20:09:07.006Z,70.18
2019-05-16T20:11:37.174Z,69.92
2019-05-16T20:14:08.549Z,69.47
2019-05-16T20:19:18.006Z,68.55
2019-05-16T20:21:58.020Z,68.91
2019-05-16T20:29:32.208Z,69.73
2019-05-16T20:32:03.435Z,69.09
2019-05-16T20:35:49.557Z,69.88
2019-05-16T20:44:41.388Z,73.17
2019-05-16T20:47:12.831Z,73.98
2019-05-16T20:49:43.959Z,74.09
2019-05-16T20:52:17.310Z,75.20
2019-05-16T20:54:46.600Z,75.70
2019-05-16T20:57:21.946Z,75.57
2019-05-16T21:02:21.136Z,75.97
2019-05-16T21:04:52.107Z,75.38
2019-05-16T21:07:23.095Z,75.19
2019-05-16T21:09:54.087Z,74.67
2019-05-16T21:12:26.571Z,74.37
2019-05-16T21:14:58.671Z,74.71
2019-05-16T21:17:29.908Z,75.86
2019-05-16T21:20:00.882Z,74.63
2019-05-16T21:22:31.809Z,74.82
2019-05-16T21:25:02.846Z,75.96
2019-05-16T21:27:33.972Z,76.21
2019-05-16T21:30:07.370Z,75.75
2019-05-16T21:32:38.188Z,74.98
2019-05-16T21:35:09.201Z,74.94
2019-05-16T21:37:40.253Z,76.32
2019-05-16T21:40:12.095Z,76.34
2019-05-16T21:42:43.125Z,77.01
2019-05-16T21:45:14.171Z,75.43
2019-05-16T21:47:47.050Z,76.40
2019-05-16T21:50:19.179Z,76.35
2019-05-16T21:52:50.654Z,76.74
2019-05-16T21:55:22.256Z,76.79
2019-05-16T21:57:53.773Z,75.41
2019-05-16T22:00:37.492Z,76.71
2019-05-16T22:03:08.259Z,75.56
2019-05-16T22:05:39.287Z,76.92
2019-05-16T22:08:11.888Z,75.52
2019-05-16T22:10:43.111Z,75.03
2019-05-16T22:13:14.093Z,76.38
2019-05-16T22:15:46.423Z,75.41
2019-05-16T22:18:17.549Z,74.96
2019-05-16T22:20:49.395Z,74.35
2019-05-16T22:23:20.759Z,75.65
2019-05-16T22:25:51.999Z,76.09
2019-05-16T22:28:23.269Z,76.16
2019-05-16T22:30:58.133Z,76.47
2019-05-16T22:33:27.830Z,75.26
2019-05-16T22:35:58.763Z,74.59
2019-05-16T22:38:29.689Z,74.54
2019-05-16T22:41:01.028Z,73.98
2019-05-16T22:43:31.782Z,74.89
2019-05-16T22:46:02.947Z,74.80
2019-05-16T22:48:33.976Z,75.71
2019-05-16T22:51:07.173Z,75.48
2019-05-16T22:53:38.330Z,76.81
2019-05-16T22:56:09.235Z,76.41
2019-05-16T22:58:40.251Z,76.79
2019-05-16T23:01:11.239Z,76.66
2019-05-16T23:03:42.267Z,76.47
2019-05-16T23:06:13.267Z,76.52
2019-05-16T23:08:44.539Z,75.10
2019-05-16T23:11:16.344Z,75.89
2019-05-16T23:13:48.740Z,76.05
2019-05-16T23:16:19.657Z,77.34
2019-05-16T23:18:50.630Z,77.62
2019-05-16T23:21:21.680Z,77.12
2019-05-16T23:23:52.658Z,77.35
2019-05-16T23:26:26.902Z,76.99
2019-05-16T23:28:58.068Z,77.32
2019-05-16T23:31:28.992Z,77.16
2019-05-16T23:33:59.877Z,76.89
2019-05-16T23:36:36.836Z,76.00
2019-05-16T23:39:08.412Z,76.95
2019-05-16T23:41:39.390Z,78.09
2019-05-16T23:44:10.367Z,76.62
2019-05-16T23:46:41.384Z,77.81
2019-05-16T23:49:12.226Z,77.95
2019-05-16T23:51:43.178Z,77.79
2019-05-16T23:54:14.167Z,77.31
2019-05-16T23:56:46.567Z,78.35
2019-05-16T23:59:17.519Z,77.94
